createdAt,value
2023-05-07T00:01:12.075Z,3.53
2023-05-07T00:06:05.769Z,3.58
2023-05-07T00:10:59.358Z,4.50
2023-05-07T00:15:52.756Z,4.57
2023-05-07T00:20:47.482Z,4.20
2023-05-07T00:25:40.764Z,4.10
2023-05-07T00:30:34.505Z,3.90
2023-05-07T00:35:28.036Z,3.60
2023-05-07T00:40:22.847Z,4.00
2023-05-07T00:45:16.665Z,3.90
2023-05-07T00:50:13.780Z,4.00
2023-05-07T00:55:09.464Z,4.40
2023-05-07T01:00:05.565Z,4.35
2023-05-07T01:04:59.229Z,3.90
2023-05-07T01:09:53.605Z,3.45
2023-05-07T01:14:47.130Z,3.60
2023-05-07T01:19:41.863Z,3.78
2023-05-07T01:24:39.028Z,3.28
2023-05-07T01:29:32.409Z,3.75
2023-05-07T01:34:28.110Z,3.80
2023-05-07T01:39:21.650Z,3.88
2023-05-07T01:44:18.869Z,4.07
2023-05-07T01:49:12.425Z,4.38
2023-05-07T01:54:06.242Z,4.10
2023-05-07T01:58:59.709Z,3.78
2023-05-07T02:03:54.894Z,3.88
2023-05-07T02:08:49.622Z,4.65
2023-05-07T02:13:43.880Z,3.95
2023-05-07T02:18:37.827Z,3.92
2023-05-07T02:23:32.480Z,4.22
2023-05-07T02:28:25.874Z,4.30
2023-05-07T02:33:19.125Z,4.15
2023-05-07T02:38:12.728Z,4.50
2023-05-07T02:43:07.526Z,3.92
2023-05-07T02:48:01.019Z,4.00
2023-05-07T02:52:54.378Z,4.32
2023-05-07T02:57:47.731Z,3.78
2023-05-07T03:02:42.569Z,3.92
2023-05-07T03:07:36.185Z,3.85
2023-05-07T03:12:29.712Z,3.90
2023-05-07T03:17:24.893Z,4.93
2023-05-07T03:22:19.706Z,4.25
2023-05-07T03:27:13.018Z,4.00
2023-05-07T03:32:07.052Z,3.75
2023-05-07T03:37:00.564Z,3.72
2023-05-07T03:41:55.804Z,3.75
2023-05-07T03:46:49.160Z,4.32
2023-05-07T03:51:42.572Z,4.03
2023-05-07T03:56:35.956Z,4.57
2023-05-07T04:01:30.697Z,4.68
2023-05-07T04:06:24.020Z,4.60
2023-05-07T04:11:17.314Z,4.22
2023-05-07T04:16:10.733Z,4.75
2023-05-07T04:21:05.901Z,4.35
2023-05-07T04:25:59.456Z,4.35
2023-05-07T04:30:52.782Z,3.97
2023-05-07T04:35:46.173Z,4.43
2023-05-07T04:40:41.069Z,4.40
2023-05-07T04:45:34.730Z,4.28
2023-05-07T04:50:28.167Z,4.30
2023-05-07T04:55:21.764Z,4.20
2023-05-07T05:00:23.972Z,4.85
2023-05-07T05:05:17.433Z,4.78
2023-05-07T05:10:11.493Z,4.88
2023-05-07T05:15:06.380Z,5.63
2023-05-07T05:20:01.082Z,5.80
2023-05-07T05:24:54.345Z,5.38
2023-05-07T05:29:47.639Z,4.80
2023-05-07T05:34:40.984Z,5.30
2023-05-07T05:39:35.699Z,5.80
2023-05-07T05:44:29.092Z,5.70
2023-05-07T05:49:22.549Z,6.40
2023-05-07T05:54:16.165Z,5.88
2023-05-07T05:59:11.516Z,6.30
2023-05-07T06:04:05.146Z,6.07
2023-05-07T06:08:58.442Z,6.10
2023-05-07T06:13:51.715Z,7.60
2023-05-07T06:18:47.773Z,7.40
2023-05-07T06:23:41.919Z,7.17
2023-05-07T06:28:36.942Z,6.90
2023-05-07T06:33:30.280Z,6.75
2023-05-07T06:38:25.249Z,6.75
2023-05-07T06:43:18.618Z,7.20
2023-05-07T06:48:12.573Z,6.47
2023-05-07T06:53:05.928Z,5.72
2023-05-07T06:58:02.254Z,6.45
2023-05-07T07:02:55.797Z,7.03
2023-05-07T07:08:00.193Z,6.82
2023-05-07T07:12:53.964Z,7.10
2023-05-07T07:17:48.728Z,6.53
2023-05-07T07:22:42.162Z,6.43
2023-05-07T07:27:35.497Z,6.97
2023-05-07T07:32:29.060Z,6.25
2023-05-07T07:37:23.779Z,6.43
2023-05-07T07:42:17.170Z,6.53
2023-05-07T07:47:10.605Z,7.13
2023-05-07T07:52:04.254Z,7.28
2023-05-07T07:56:58.984Z,6.82
2023-05-07T08:01:55.537Z,7.05
2023-05-07T08:06:49.099Z,6.90
2023-05-07T08:11:43.010Z,6.03
2023-05-07T08:16:37.718Z,6.10
2023-05-07T08:21:33.741Z,6.10
2023-05-07T08:26:28.017Z,5.15
2023-05-07T08:31:21.587Z,5.47
2023-05-07T08:36:16.402Z,5.38
2023-05-07T08:41:12.836Z,5.30
2023-05-07T08:46:10.102Z,5.40
2023-05-07T08:51:03.960Z,5.03
2023-05-07T08:55:59.653Z,5.15
2023-05-07T09:00:56.139Z,5.38
2023-05-07T09:06:43.079Z,4.85
2023-05-07T09:11:37.885Z,4.38
2023-05-07T09:16:33.036Z,3.78
2023-05-07T09:21:26.853Z,3.50
2023-05-07T09:26:21.341Z,3.03
2023-05-07T09:31:16.882Z,2.70
2023-05-07T09:36:12.523Z,2.22
2023-05-07T09:41:08.062Z,2.55
2023-05-07T09:46:06.615Z,2.53
2023-05-07T09:51:06.693Z,1.90
2023-05-07T09:56:03.605Z,2.28
2023-05-07T10:00:59.978Z,5.03
2023-05-07T10:05:54.323Z,5.85
2023-05-07T10:10:49.667Z,5.03
2023-05-07T10:15:43.871Z,5.13
2023-05-07T10:20:41.039Z,4.80
2023-05-07T10:25:35.492Z,4.30
2023-05-07T10:30:47.178Z,4.07
2023-05-07T10:35:44.614Z,4.45
2023-05-07T10:40:38.436Z,5.28
2023-05-07T10:45:34.512Z,4.05
2023-05-07T10:50:27.914Z,5.07
2023-05-07T10:55:26.091Z,4.85
2023-05-07T11:00:45.691Z,5.60
2023-05-07T11:05:39.717Z,5.47
2023-05-07T11:10:54.531Z,5.82
2023-05-07T11:15:50.727Z,5.80
2023-05-07T11:20:59.126Z,5.38
2023-05-07T11:25:52.688Z,5.30
2023-05-07T11:30:47.228Z,5.22
2023-05-07T11:35:44.460Z,6.25
2023-05-07T11:40:51.086Z,5.60
2023-05-07T11:45:44.532Z,5.28
2023-05-07T11:50:37.869Z,5.38
2023-05-07T11:55:32.896Z,5.95
2023-05-07T12:00:26.213Z,5.82
2023-05-07T12:05:19.700Z,5.68
2023-05-07T12:10:14.902Z,5.95
2023-05-07T12:15:11.703Z,5.72
2023-05-07T12:20:06.732Z,4.78
2023-05-07T12:25:01.116Z,4.93
2023-05-07T12:29:54.495Z,4.90
2023-05-07T12:34:53.093Z,4.22
2023-05-07T12:39:50.917Z,4.20
2023-05-07T12:49:46.938Z,4.18
2023-05-07T12:54:41.618Z,4.30
2023-05-07T12:59:36.691Z,3.70
2023-05-07T13:04:30.116Z,3.53
2023-05-07T13:14:32.106Z,3.25
2023-05-07T13:19:25.462Z,2.78
2023-05-07T13:24:18.845Z,3.00
2023-05-07T13:29:12.322Z,2.75
2023-05-07T13:34:07.017Z,2.90
2023-05-07T13:39:01.572Z,2.70
2023-05-07T13:43:54.911Z,2.40
2023-05-07T13:48:48.305Z,2.45
2023-05-07T13:53:42.893Z,2.40
2023-05-07T13:58:42.261Z,2.50
2023-05-07T14:03:40.760Z,3.00
2023-05-07T14:08:34.281Z,2.58
2023-05-07T14:13:29.139Z,2.65
2023-05-07T14:18:22.491Z,2.88
2023-05-07T14:23:15.841Z,2.30
2023-05-07T14:28:12.054Z,1.67
2023-05-07T14:33:06.758Z,1.90
2023-05-07T14:38:00.017Z,1.60
2023-05-07T14:42:53.517Z,1.52
2023-05-07T14:47:46.862Z,1.80
2023-05-07T14:52:41.564Z,1.60
2023-05-07T14:57:35.981Z,1.75
2023-05-07T15:07:44.266Z,1.30
2023-05-07T15:22:48.076Z,1.58
2023-05-07T15:27:41.634Z,1.60
2023-05-07T15:32:35.827Z,1.75
2023-05-07T15:37:29.342Z,1.90
2023-05-07T15:58:06.732Z,1.70
2023-05-07T16:03:00.277Z,1.88
2023-05-07T16:07:57.348Z,1.50
2023-05-07T16:12:53.083Z,1.45
2023-05-07T16:17:50.928Z,1.30
2023-05-07T16:22:44.696Z,1.50
2023-05-07T16:27:38.305Z,1.52
2023-05-07T16:32:41.399Z,1.60
2023-05-07T16:37:44.649Z,1.40
2023-05-07T16:43:04.445Z,1.83
2023-05-07T16:47:58.771Z,1.40
2023-05-07T16:52:53.578Z,1.63
2023-05-07T16:57:46.892Z,1.60
2023-05-07T17:02:40.259Z,1.67
2023-05-07T17:07:33.700Z,1.98
2023-05-07T17:12:29.286Z,2.20
2023-05-07T17:17:22.623Z,2.03
2023-05-07T17:32:21.264Z,3.00
2023-05-07T17:37:15.265Z,2.90
2023-05-07T17:42:09.940Z,3.10
2023-05-07T17:47:03.796Z,2.97
2023-05-07T17:51:58.541Z,2.80
2023-05-07T17:56:54.697Z,2.97
2023-05-07T18:01:48.216Z,3.47
2023-05-07T18:06:42.169Z,3.22
2023-05-07T18:11:39.410Z,3.00
2023-05-07T18:16:33.014Z,3.60
2023-05-07T18:21:29.324Z,3.40
2023-05-07T18:26:26.738Z,3.30
2023-05-07T18:31:30.114Z,3.20
2023-05-07T18:36:25.041Z,3.75
2023-05-07T18:41:20.417Z,3.60
2023-05-07T18:46:13.815Z,2.95
2023-05-07T18:51:12.518Z,3.00
2023-05-07T18:56:06.650Z,2.88
2023-05-07T19:01:00.026Z,3.05
2023-05-07T19:05:55.948Z,2.88
2023-05-07T19:10:58.986Z,3.00
2023-05-07T19:15:54.430Z,3.00
2023-05-07T19:20:55.440Z,3.10
2023-05-07T19:25:51.367Z,2.95
2023-05-07T19:30:49.866Z,2.50
2023-05-07T19:35:43.419Z,2.80
2023-05-07T19:40:39.118Z,3.17
2023-05-07T19:45:32.765Z,3.05
2023-05-07T19:50:30.244Z,3.03
2023-05-07T19:55:25.159Z,3.30
2023-05-07T20:00:18.750Z,3.67
2023-05-07T20:05:13.940Z,2.65
2023-05-07T20:10:10.704Z,2.67
2023-05-07T20:15:06.419Z,2.85
2023-05-07T20:19:59.737Z,2.25
2023-05-07T20:24:53.105Z,2.40
2023-05-07T20:29:48.382Z,2.58
2023-05-07T20:34:42.132Z,2.05
2023-05-07T20:39:35.459Z,2.10
2023-05-07T20:44:33.473Z,1.90
2023-05-07T20:49:28.199Z,2.08
2023-05-07T20:54:25.990Z,1.70
2023-05-07T20:59:19.294Z,1.40
2023-05-07T21:04:12.606Z,1.50
2023-05-07T21:09:07.933Z,1.40
2023-05-07T21:14:01.320Z,1.50
2023-05-07T21:18:54.613Z,1.30
2023-05-07T21:23:47.911Z,1.50
2023-05-07T21:28:42.668Z,1.30
2023-05-07T21:33:35.978Z,1.33
2023-05-07T21:38:29.336Z,1.30
2023-05-07T21:43:22.609Z,1.20
2023-05-07T21:48:21.470Z,1.10
2023-05-07T21:53:14.736Z,1.17
2023-05-07T21:58:07.976Z,1.48
2023-05-07T22:03:01.481Z,1.27
2023-05-07T22:07:56.442Z,1.20
2023-05-07T22:12:52.527Z,1.20
2023-05-07T22:17:45.923Z,1.05
2023-05-07T22:22:49.530Z,1.17
2023-05-07T22:27:46.640Z,0.90
2023-05-07T22:32:40.086Z,1.23
2023-05-07T22:37:33.422Z,1.05
2023-05-07T22:42:26.769Z,1.00
2023-05-07T22:47:21.454Z,0.82
2023-05-07T22:52:14.808Z,1.00
2023-05-07T22:57:08.155Z,0.90
2023-05-07T23:02:01.480Z,1.08
2023-05-07T23:06:56.137Z,1.00
2023-05-07T23:11:49.361Z,0.80
2023-05-07T23:16:42.803Z,0.80
2023-05-07T23:21:36.261Z,0.65
2023-05-07T23:26:30.932Z,0.75
2023-05-07T23:31:24.356Z,1.20
2023-05-07T23:36:17.675Z,1.92
2023-05-07T23:41:10.984Z,0.80
2023-05-07T23:46:05.716Z,0.52
2023-05-07T23:50:58.982Z,0.80
2023-05-07T23:55:52.233Z,0.63
